Latest Weather Observations for Witchcliffe

IDW60801

Issued at 5:05 pm WST Tuesday 21 October 2014 (issued every 30 minutes, with the page automatically refreshed every 10 minutes)

About weather observations | Map of weather stations | Latest weather observations for WA | Other Formats
Station Details ID: 009746 Name: WITCHCLIFFE Lat: -34.03 Lon: 115.10 Height: 80.0 m
Data from the previous 72 hours. | See also: Recent months at Witchcliffe
Date/Time
WST
Temp
°C
App
Temp
°C
Dew
Point
Rel
Hum
%
Delta-T
°C
Wind Press
QNH
hPa
Press
MSL
hPa
Rain
since 9 am
mm
Dir
 
Spd
km/h
Gust
km/h
Spd
kts
Gust
kts
21/05:00pm 17.7 13.1 8.3 54 4.8 SSE 22 33 12 18 1021.0 1020.9 0.0
21/04:30pm 18.5 14.2 7.9 50 5.4 SSE 20 30 11 16 1021.1 1021.0 0.0
21/04:00pm 19.2 15.1 8.5 50 5.6 S 20 28 11 15 1020.9 1020.8 0.0
21/03:30pm 20.2 16.8 9.2 49 5.8 SSE 17 24 9 13 1021.3 1021.2 0.0
21/03:00pm 20.0 16.4 8.4 47 6.0 SSE 17 24 9 13 1021.6 1021.5 0.0
21/02:30pm 20.3 17.1 8.6 47 6.1 SSE 15 24 8 13 1021.5 1021.4 0.0
21/02:00pm 20.3 17.4 8.3 46 6.2 SE 13 24 7 13 1021.8 1021.7 0.0
21/01:30pm 19.8 16.7 7.2 44 6.4 SE 13 24 7 13 1022.0 1021.9 0.0
21/01:00pm 19.4 16.4 7.5 46 6.1 ESE 13 19 7 10 1022.4 1022.3 0.0
21/12:30pm 19.1 16.2 8.1 49 5.7 ESE 13 22 7 12 1022.8 1022.7 0.0
21/12:00pm 19.2 16.6 9.4 53 5.2 SE 13 22 7 12 1022.8 1022.7 0.0
21/11:30am 18.2 14.9 7.9 51 5.3 S 15 28 8 15 1023.0 1022.9 0.0
21/11:00am 18.1 15.1 7.8 51 5.2 SSE 13 24 7 13 1023.1 1023.0 0.0
21/10:30am 17.4 14.4 7.5 52 5.0 SE 13 22 7 12 1023.3 1023.2 0.0
21/10:00am 17.4 14.5 8.0 54 4.8 SE 13 22 7 12 1023.3 1023.2 0.0
21/09:30am 17.0 14.5 8.2 56 4.5 SE 11 19 6 10 1023.4 1023.3 0.0
21/09:00am 16.4 14.1 7.3 55 4.5 SE 9 19 5 10 1023.3 1023.2 0.2
21/08:30am 15.4 13.1 7.4 59 4.0 E 9 13 5 7 1023.1 1023.0 0.2
21/08:00am 14.0 12.5 9.2 73 2.4 E 7 11 4 6 1023.1 1023.0 0.2
21/07:30am 12.2 12.9 12.2 100 0.0 CALM 0 0 0 0 1023.0 1022.9 0.2
21/07:00am 9.9 9.5 9.9 100 0.0 NE 2 7 1 4 1022.5 1022.4 0.2
21/06:30am 8.0 7.5 8.0 100 0.0 CALM 0 0 0 0 1022.4 1022.3 0.2
21/06:00am 6.3 5.5 6.3 100 0.0 CALM 0 0 0 0 1022.2 1022.1 0.2
21/05:30am 6.0 5.1 6.0 100 0.0 CALM 0 0 0 0 1022.1 1022.0 0.2
21/05:00am 6.2 5.3 6.2 100 0.0 CALM 0 0 0 0 1021.9 1021.8 0.2
21/04:30am 7.1 6.4 7.1 100 0.0 CALM 0 0 0 0 1021.5 1021.4 0.2
21/04:00am 7.2 6.6 7.2 100 0.0 CALM 0 0 0 0 1021.3 1021.2 0.2
21/03:30am 6.7 5.9 6.7 100 0.0 CALM 0 0 0 0 1021.0 1020.9 0.2
21/03:00am 7.1 6.4 7.1 100 0.0 CALM 0 0 0 0 1021.0 1020.9 0.2
21/02:30am 6.9 6.2 6.9 100 0.0 CALM 0 0 0 0 1020.8 1020.7 0.2
21/02:00am 6.6 5.8 6.6 100 0.0 CALM 0 0 0 0 1020.8 1020.7 0.2
21/01:30am 6.5 5.7 6.4 99 0.0 CALM 0 0 0 0 1020.8 1020.7 0.2
21/01:00am 6.8 6.0 6.7 99 0.0 CALM 0 0 0 0 1020.7 1020.6 0.2
21/12:30am 7.0 6.3 6.9 99 0.0 CALM 0 6 0 3 1020.7 1020.6 0.2
21/12:00am 7.6 7.0 7.5 99 0.0 N 0 0 0 0 1020.8 1020.7 0.2
 
Date/Time
WST
Temp
°C
App
Temp
°C
Dew
Point
Rel
Hum
%
Delta-T
°C
Wind Press
QNH
hPa
Press
MSL
hPa
Rain
since 9 am
mm
Dir
 
Spd
km/h
Gust
km/h
Spd
kts
Gust
kts
20/11:30pm 7.6 7.0 7.5 99 0.0 CALM 0 0 0 0 1020.7 1020.6 0.2
20/11:00pm 8.2 7.8 8.1 99 0.0 CALM 0 0 0 0 1020.8 1020.7 0.2
20/10:30pm 8.7 8.4 8.6 99 0.0 CALM 0 0 0 0 1021.0 1020.9 0.2
20/10:00pm 9.2 9.0 8.9 98 0.1 CALM 0 0 0 0 1021.1 1021.0 0.2
20/09:30pm 9.7 9.5 8.9 95 0.4 CALM 0 0 0 0 1021.1 1021.0 0.2
20/09:00pm 10.3 10.1 9.2 93 0.5 CALM 0 0 0 0 1021.1 1021.0 0.2
20/08:30pm 10.8 10.7 9.6 92 0.6 CALM 0 0 0 0 1021.2 1021.1 0.2
20/08:00pm 11.1 9.9 9.5 90 0.8 SSW 6 9 3 5 1021.3 1021.2 0.2
20/07:30pm 11.8 11.6 9.0 83 1.4 CALM 0 0 0 0 1020.7 1020.6 0.2
20/07:00pm 13.1 11.9 9.4 78 1.9 SSE 6 9 3 5 1020.4 1020.3 0.2
20/06:30pm 14.4 13.0 9.6 73 2.5 S 7 13 4 7 1020.5 1020.4 0.2
20/06:00pm 14.6 12.1 9.6 72 2.6 SSW 13 19 7 10 1020.2 1020.1 0.2
20/05:30pm 15.5 13.4 9.8 69 3.0 S 11 17 6 9 1019.6 1019.6 0.2
20/05:00pm 16.2 13.9 10.5 69 3.0 SSW 13 22 7 12 1019.5 1019.5 0.2
20/04:30pm 16.2 13.3 9.8 66 3.4 SW 15 22 8 12 1019.5 1019.5 0.2
20/04:00pm 16.8 14.3 11.1 69 3.1 SW 15 22 8 12 1019.3 1019.3 0.2
20/03:30pm 16.1 12.6 10.2 68 3.1 SW 19 28 10 15 1019.3 1019.3 0.2
20/03:00pm 15.8 12.7 11.6 76 2.3 SSW 19 28 10 15 1019.0 1019.0 0.2
20/02:30pm 15.2 11.4 12.5 84 1.5 SW 24 35 13 19 1018.9 1018.9 0.2
20/02:00pm 16.3 13.6 11.7 74 2.5 SW 17 30 9 16 1018.7 1018.7 0.2
20/01:30pm 16.1 13.5 11.9 76 2.3 SSW 17 28 9 15 1018.4 1018.4 0.2
20/01:00pm 16.2 12.9 12.7 80 1.9 SSW 22 32 12 17 1018.5 1018.5 0.2
20/12:30pm 16.7 13.2 12.3 75 2.4 WSW 22 32 12 17 1018.2 1018.2 0.2
20/12:00pm 17.5 15.3 13.4 77 2.3 SSW 17 24 9 13 1018.1 1018.1 0.2
20/11:30am 15.0 13.2 14.5 97 0.3 SW 17 24 9 13 1018.3 1018.3 0.2
20/11:00am 15.4 12.6 12.5 83 1.6 SSW 19 24 10 13 1018.3 1018.3 0.0
20/10:30am 15.7 13.1 12.1 79 2.0 SSW 17 30 9 16 1018.0 1018.0 0.0
20/10:00am 15.6 13.1 12.2 80 1.9 SSW 17 22 9 12 1017.9 1017.9 0.0
20/09:30am 15.8 14.2 12.7 82 1.7 SSW 13 20 7 11 1018.1 1018.1 0.0
20/09:00am 15.9 13.1 11.3 74 2.5 S 17 24 9 13 1017.9 1017.9 1.8
20/08:30am 15.2 13.0 12.0 81 1.7 S 15 24 8 13 1017.9 1017.9 1.8
20/08:00am 15.4 13.5 12.9 85 1.4 S 15 22 8 12 1018.0 1018.0 1.8
20/07:30am 14.1 12.0 12.5 90 0.9 S 15 22 8 12 1017.9 1017.9 1.8
20/07:00am 13.5 12.1 13.3 99 0.1 S 13 20 7 11 1017.6 1017.6 1.8
20/06:30am 12.5 11.5 12.3 99 0.1 SSW 9 13 5 7 1017.2 1017.2 1.8
20/06:00am 12.5 11.5 12.3 99 0.1 SSW 9 15 5 8 1017.1 1017.1 1.8
20/05:30am 12.6 10.9 12.4 99 0.1 S 13 19 7 10 1016.6 1016.6 1.8
20/05:00am 12.5 10.8 12.3 99 0.1 S 13 17 7 9 1016.3 1016.3 1.8
20/04:30am 12.4 10.7 12.4 100 0.0 S 13 20 7 11 1016.1 1016.1 1.8
20/04:00am 12.3 9.8 12.3 100 0.0 S 17 32 9 17 1016.2 1016.2 1.8
20/03:30am 12.3 10.5 12.1 99 0.1 S 13 20 7 11 1016.2 1016.2 1.6
20/03:00am 12.2 10.4 12.0 99 0.1 S 13 20 7 11 1016.5 1016.5 1.6
20/02:30am 12.2 10.4 12.0 99 0.1 SSW 13 17 7 9 1016.6 1016.6 1.4
20/02:00am 12.1 10.6 11.9 99 0.1 SSW 11 17 6 9 1016.5 1016.5 1.4
20/01:30am 12.0 10.1 11.8 99 0.1 S 13 17 7 9 1016.4 1016.4 1.4
20/01:00am 11.8 11.0 11.6 99 0.1 S 7 11 4 6 1016.9 1016.9 1.4
20/12:30am 12.0 10.9 11.8 99 0.1 S 9 15 5 8 1017.1 1017.1 1.4
20/12:00am 12.0 11.3 12.0 100 0.0 SW 7 9 4 5 1017.5 1017.5 1.4
 
Date/Time
WST
Temp
°C
App
Temp
°C
Dew
Point
Rel
Hum
%
Delta-T
°C
Wind Press
QNH
hPa
Press
MSL
hPa
Rain
since 9 am
mm
Dir
 
Spd
km/h
Gust
km/h
Spd
kts
Gust
kts
19/11:30pm 12.1 11.6 11.9 99 0.1 S 6 9 3 5 1017.8 1017.8 1.4
19/11:00pm 12.3 11.6 12.1 99 0.1 S 7 11 4 6 1018.1 1018.1 0.8
19/10:30pm 12.3 10.9 12.1 99 0.1 SSE 11 17 6 9 1018.2 1018.2 0.2
19/10:00pm 12.4 9.9 12.2 99 0.1 SSE 17 24 9 13 1018.4 1018.4 0.2
19/09:30pm 12.5 10.0 11.2 92 0.7 SSE 15 24 8 13 1018.4 1018.4 0.0
19/09:00pm 12.9 10.5 9.9 82 1.5 SSE 13 20 7 11 1018.5 1018.5 0.0
19/08:30pm 12.7 9.7 9.2 79 1.8 SSE 15 22 8 12 1018.3 1018.3 0.0
19/08:00pm 12.9 9.9 9.2 78 1.9 SSE 15 22 8 12 1018.1 1018.1 0.0
19/07:30pm 12.9 9.8 8.8 76 2.1 SE 15 22 8 12 1018.0 1018.0 0.0
19/07:00pm 12.9 10.0 8.2 73 2.3 SSE 13 20 7 11 1017.9 1017.9 0.0
19/06:30pm 13.7 9.8 8.5 71 2.6 SSE 19 37 10 20 1017.8 1017.8 0.0
19/06:00pm 13.9 9.8 8.5 70 2.7 SSE 20 33 11 18 1017.9 1017.9 0.0
19/05:30pm 15.2 11.1 8.7 65 3.3 SE 20 37 11 20 1017.8 1017.8 0.0
19/05:00pm 15.5 11.2 9.2 66 3.2 SE 22 30 12 16 1017.5 1017.5 0.0
19/04:30pm 15.7 11.8 8.7 63 3.6 SSE 19 30 10 16 1017.9 1017.9 0.0
19/04:00pm 16.0 11.9 8.7 62 3.7 SE 20 35 11 19 1017.7 1017.7 0.0
19/03:30pm 15.7 10.5 8.7 63 3.6 SSE 26 35 14 19 1017.5 1017.5 0.0
19/03:00pm 15.9 11.9 8.9 63 3.6 SSE 20 32 11 17 1017.5 1017.5 0.0
19/02:30pm 17.8 13.5 10.7 63 3.8 SSE 24 39 13 21 1017.5 1017.5 0.0
19/02:00pm 16.1 11.5 8.3 60 4.0 SE 22 33 12 18 1017.6 1017.6 0.0
19/01:30pm 16.7 12.2 8.7 59 4.1 SE 22 35 12 19 1017.8 1017.8 0.0
19/01:00pm 16.3 11.4 8.3 59 4.1 SE 24 35 13 19 1017.9 1017.9 0.0
19/12:30pm 16.4 11.0 8.1 58 4.2 SE 26 35 14 19 1017.9 1017.9 0.0
19/12:00pm 17.5 12.7 8.9 57 4.5 SE 24 37 13 20 1018.0 1018.0 0.0
19/11:30am 16.9 11.4 7.5 54 4.7 SE 26 39 14 21 1018.2 1018.2 0.0
19/11:00am 16.7 12.1 8.1 57 4.4 SE 22 37 12 20 1018.3 1018.3 0.0
19/10:30am 16.8 11.5 8.5 58 4.3 SE 26 39 14 21 1018.6 1018.6 0.0
19/10:00am 15.6 10.6 8.1 61 3.8 SSE 24 43 13 23 1019.1 1019.1 0.0
19/09:30am 15.2 10.0 7.2 59 4.0 SE 24 37 13 20 1019.3 1019.3 0.0
19/09:00am 14.8 10.0 7.4 61 3.7 SE 22 37 12 20 1019.4 1019.4 0.0
19/08:30am 14.0 9.0 8.0 67 3.0 SE 24 37 13 20 1019.3 1019.3 0.0
19/08:00am 13.4 9.5 8.5 72 2.5 SE 19 30 10 16 1019.5 1019.5 0.0
19/07:30am 12.5 8.7 9.0 79 1.8 SE 19 32 10 17 1019.6 1019.6 0.0
19/07:00am 11.9 8.6 9.5 85 1.2 SE 17 28 9 15 1019.7 1019.7 0.0
19/06:30am 11.0 7.1 9.3 89 0.9 SE 20 32 11 17 1019.5 1019.5 0.0
19/06:00am 10.6 6.8 9.0 90 0.8 SE 19 32 10 17 1019.3 1019.3 0.0
19/05:30am 10.6 6.8 8.9 89 0.8 SE 19 28 10 15 1019.0 1019.0 0.0
19/05:00am 10.7 6.6 8.8 88 0.9 SSE 20 30 11 16 1018.8 1018.8 0.0
19/04:30am 10.8 6.7 8.7 87 1.0 SE 20 32 11 17 1018.9 1018.9 0.0
19/04:00am 10.8 6.9 8.7 87 1.0 SE 19 32 10 17 1019.1 1019.1 0.0
19/03:30am 10.9 6.8 8.5 85 1.2 SE 20 32 11 17 1019.2 1019.2 0.0
19/03:00am 11.0 7.4 8.2 83 1.4 SE 17 26 9 14 1019.3 1019.3 0.0
19/02:30am 11.2 7.5 8.1 81 1.5 SE 17 28 9 15 1019.1 1019.1 0.0
19/02:00am 11.1 7.8 8.0 81 1.5 SE 15 22 8 12 1019.3 1019.3 0.0
19/01:30am 11.1 7.8 8.1 82 1.5 SSE 15 22 8 12 1019.4 1019.4 0.0
19/01:00am 11.2 7.9 8.1 81 1.5 SE 15 22 8 12 1019.5 1019.5 0.0
19/12:30am 11.3 7.2 8.0 80 1.6 SSE 19 24 10 13 1019.5 1019.5 0.0
19/12:00am 11.6 8.6 7.9 78 1.8 SSE 13 19 7 10 1019.7 1019.7 0.0
 
Date/Time
WST
Temp
°C
App
Temp
°C
Dew
Point
Rel
Hum
%
Delta-T
°C
Wind Press
QNH
hPa
Press
MSL
hPa
Rain
since 9 am
mm
Dir
 
Spd
km/h
Gust
km/h
Spd
kts
Gust
kts
18/11:30pm 11.8 8.1 7.9 77 1.9 SSE 17 24 9 13 1019.7 1019.7 0.0
18/11:00pm 12.0 8.7 7.9 76 2.0 SE 15 20 8 11 1019.8 1019.8 0.0
18/10:30pm 12.2 8.8 7.7 74 2.2 SE 15 22 8 12 1019.8 1019.8 0.0
18/10:00pm 12.5 8.7 7.6 72 2.4 SSE 17 24 9 13 1020.1 1020.0 0.0
18/09:30pm 12.7 9.2 7.4 70 2.6 SE 15 24 8 13 1019.9 1019.9 0.0
18/09:00pm 12.8 9.0 7.5 70 2.6 SSE 17 26 9 14 1019.8 1019.8 0.0
18/08:30pm 12.9 9.5 7.6 70 2.6 SE 15 24 8 13 1019.5 1019.5 0.0
18/08:00pm 13.2 9.0 7.6 69 2.7 SSE 19 28 10 15 1019.2 1019.2 0.0
18/07:30pm 13.5 9.4 7.9 69 2.8 SSE 19 28 10 15 1018.7 1018.7 0.0
18/07:00pm 13.9 9.8 7.9 67 3.0 SSE 19 28 10 15 1018.2 1018.2 0.0
18/06:30pm 14.2 9.2 8.2 67 3.0 SSE 24 33 13 18 1017.7 1017.7 0.0
18/06:00pm 14.0 9.5 8.6 70 2.7 SSE 22 32 12 17 1017.4 1017.4 0.0
18/05:30pm 14.6 8.6 8.5 67 3.1 SSE 30 50 16 27 1017.3 1017.3 0.0
18/05:28pm 14.7 9.1 8.6 67 3.1 SSE 28 50 15 27 1017.2 1017.2 0.0

Other Formats:

Comma delimited format used in spreadsheet applications
http://www.bom.gov.au/fwo/IDW60801/IDW60801.95641.axf

JavaScript Object Notation format (JSON) in row-major order
http://www.bom.gov.au/fwo/IDW60801/IDW60801.95641.json